createdAt,value
2023-04-12T00:00:22.893Z,8.68
2023-04-12T00:02:54.356Z,6.37
2023-04-12T00:05:26.342Z,6.12
2023-04-12T00:07:56.346Z,8.90
2023-04-12T00:10:26.587Z,10.08
2023-04-12T00:12:56.359Z,8.40
2023-04-12T00:15:25.966Z,8.73
2023-04-12T00:17:56.599Z,7.65
2023-04-12T00:20:27.886Z,8.98
2023-04-12T00:22:57.750Z,6.65
2023-04-12T00:25:28.922Z,7.53
2023-04-12T00:27:59.427Z,6.15
2023-04-12T00:30:29.676Z,8.15
2023-04-12T00:33:00.400Z,9.05
2023-04-12T00:35:30.555Z,8.93
2023-04-12T00:38:00.124Z,7.58
2023-04-12T00:40:29.577Z,6.87
2023-04-12T00:42:59.329Z,8.53
2023-04-12T00:45:28.939Z,8.90
2023-04-12T00:47:58.598Z,7.83
2023-04-12T00:50:29.016Z,5.60
2023-04-12T00:53:00.146Z,7.58
2023-04-12T00:55:29.763Z,8.73
2023-04-12T00:58:00.166Z,9.45
2023-04-12T01:00:29.951Z,8.80
2023-04-12T01:03:01.409Z,6.72
2023-04-12T01:05:33.927Z,6.03
2023-04-12T01:08:16.369Z,6.72
2023-04-12T01:10:49.427Z,9.53
2023-04-12T01:16:09.927Z,7.85
2023-04-12T01:24:06.710Z,9.48
2023-04-12T01:26:49.783Z,8.30
2023-04-12T01:29:26.455Z,8.58
2023-04-12T01:32:06.290Z,8.40
2023-04-12T01:34:38.960Z,8.38
2023-04-12T01:37:11.052Z,6.83
2023-04-12T01:39:41.652Z,8.83
2023-04-12T01:42:11.138Z,7.53
2023-04-12T01:44:40.704Z,7.15
2023-04-12T01:47:10.242Z,8.85
2023-04-12T01:49:43.015Z,8.25
2023-04-12T01:52:15.493Z,9.25
2023-04-12T01:54:48.086Z,9.75
2023-04-12T01:57:19.598Z,10.63
2023-04-12T01:59:52.468Z,7.35
2023-04-12T02:02:22.918Z,9.33
2023-04-12T02:04:55.538Z,8.83
2023-04-12T02:07:25.146Z,11.48
2023-04-12T02:09:54.620Z,6.75
2023-04-12T02:12:25.470Z,7.95
2023-04-12T02:14:57.219Z,6.83
2023-04-12T02:17:27.314Z,7.75
2023-04-12T02:19:58.886Z,8.68
2023-04-12T02:22:28.433Z,7.65
2023-04-12T02:24:59.534Z,7.75
2023-04-12T02:27:29.084Z,8.10
2023-04-12T02:30:00.537Z,6.80
2023-04-12T02:32:54.051Z,5.90
2023-04-12T02:35:25.781Z,9.13
2023-04-12T02:38:00.217Z,7.28
2023-04-12T02:40:31.777Z,9.25
2023-04-12T02:43:01.347Z,7.12
2023-04-12T02:45:30.975Z,10.10
2023-04-12T02:48:01.449Z,8.00
2023-04-12T02:50:31.338Z,9.98
2023-04-12T02:53:14.353Z,7.05
2023-04-12T02:55:45.161Z,10.95
2023-04-12T02:58:14.769Z,8.65
2023-04-12T03:00:48.148Z,6.00
2023-04-12T03:03:19.371Z,11.73
2023-04-12T03:05:49.771Z,7.10
2023-04-12T03:08:20.404Z,9.18
2023-04-12T03:10:51.602Z,11.85
2023-04-12T03:13:21.453Z,8.75
2023-04-12T03:15:57.565Z,8.20
2023-04-12T03:18:29.277Z,12.30
2023-04-12T03:20:58.858Z,9.93
2023-04-12T03:23:28.412Z,14.15
2023-04-12T03:25:59.767Z,9.98
2023-04-12T03:28:33.926Z,8.65
2023-04-12T03:31:04.987Z,10.50
2023-04-12T03:33:39.794Z,11.68
2023-04-12T03:36:12.417Z,7.95
2023-04-12T03:38:42.354Z,10.88
2023-04-12T03:41:13.057Z,10.93
2023-04-12T03:43:42.736Z,9.70
2023-04-12T03:46:15.826Z,7.53
2023-04-12T03:48:46.070Z,10.80
2023-04-12T03:51:16.410Z,9.05
2023-04-12T03:53:46.655Z,8.50
2023-04-12T03:56:17.684Z,10.55
2023-04-12T03:58:48.953Z,9.65
2023-04-12T04:01:18.641Z,10.50
2023-04-12T04:03:48.927Z,7.03
2023-04-12T04:06:24.007Z,9.98
2023-04-12T04:08:55.527Z,9.53
2023-04-12T04:11:27.107Z,9.73
2023-04-12T04:13:58.540Z,9.35
2023-04-12T04:16:31.027Z,10.65
2023-04-12T04:19:01.875Z,10.78
2023-04-12T04:21:32.679Z,10.68
2023-04-12T04:24:02.830Z,10.45
2023-04-12T04:26:34.392Z,11.20
2023-04-12T04:29:06.193Z,9.73
2023-04-12T04:31:40.563Z,11.70
2023-04-12T04:34:13.837Z,9.83
2023-04-12T04:36:45.521Z,9.68
2023-04-12T04:39:17.404Z,11.73
2023-04-12T04:41:47.357Z,6.80
2023-04-12T04:44:21.960Z,18.32
2023-04-12T04:46:53.538Z,11.55
2023-04-12T04:49:23.086Z,11.03
2023-04-12T04:51:53.779Z,12.25
2023-04-12T04:54:24.275Z,19.52
2023-04-12T04:56:54.514Z,9.73
2023-04-12T04:59:24.556Z,12.18
2023-04-12T05:01:54.739Z,10.48
2023-04-12T05:04:24.769Z,11.57
2023-04-12T05:06:55.581Z,14.47
2023-04-12T05:09:26.981Z,12.80
2023-04-12T05:11:58.175Z,10.95
2023-04-12T05:14:37.698Z,8.93
2023-04-12T05:16:59.535Z,8.88
2023-04-12T05:19:29.932Z,10.50
2023-04-12T05:21:59.774Z,10.13
2023-04-12T05:24:29.732Z,9.70
2023-04-12T05:26:59.620Z,11.10
2023-04-12T05:29:29.151Z,11.83
2023-04-12T05:32:00.632Z,10.90
2023-04-12T05:34:31.148Z,9.25
2023-04-12T05:37:00.784Z,11.65
2023-04-12T05:39:35.062Z,9.23
2023-04-12T05:42:05.650Z,8.95
2023-04-12T05:44:37.778Z,11.95
2023-04-12T05:47:08.129Z,13.83
2023-04-12T05:49:39.424Z,10.60
2023-04-12T05:52:10.586Z,10.60
2023-04-12T05:54:42.003Z,12.07
2023-04-12T05:57:13.268Z,9.77
2023-04-12T05:59:43.128Z,12.18
2023-04-12T06:02:13.008Z,15.10
2023-04-12T06:04:50.644Z,14.80
2023-04-12T06:07:17.228Z,15.00
2023-04-12T06:09:47.568Z,16.42
2023-04-12T06:12:18.349Z,15.40
2023-04-12T06:14:49.029Z,11.78
2023-04-12T06:17:19.258Z,13.58
2023-04-12T06:19:49.115Z,12.75
2023-04-12T06:22:18.734Z,11.05
2023-04-12T06:24:49.180Z,13.30
2023-04-12T06:27:20.924Z,11.28
2023-04-12T06:29:51.068Z,16.37
2023-04-12T06:32:21.253Z,13.08
2023-04-12T06:34:51.717Z,9.70
2023-04-12T06:37:22.531Z,10.55
2023-04-12T06:39:52.879Z,14.55
2023-04-12T06:42:22.431Z,16.82
2023-04-12T06:44:51.902Z,12.58
2023-04-12T06:47:22.947Z,12.78
2023-04-12T06:49:55.581Z,10.75
2023-04-12T06:52:28.634Z,10.58
2023-04-12T06:54:58.763Z,11.48
2023-04-12T06:57:30.228Z,11.20
2023-04-12T06:59:59.774Z,12.80
2023-04-12T07:02:29.326Z,8.53
2023-04-12T07:04:59.242Z,9.85
2023-04-12T07:07:28.804Z,10.20
2023-04-12T07:10:00.276Z,11.85
2023-04-12T07:12:30.178Z,11.43
2023-04-12T07:14:59.887Z,10.88
2023-04-12T07:17:29.411Z,9.53
2023-04-12T07:19:59.690Z,15.88
2023-04-12T07:22:29.171Z,12.23
2023-04-12T07:24:58.791Z,12.33
2023-04-12T07:27:31.353Z,11.55
2023-04-12T07:30:00.841Z,11.30
2023-04-12T07:32:30.688Z,16.12
2023-04-12T07:35:00.797Z,10.23
2023-04-12T07:37:31.050Z,15.10
2023-04-12T07:40:00.858Z,15.88
2023-04-12T07:42:30.450Z,12.37
2023-04-12T07:45:00.115Z,16.57
2023-04-12T07:47:29.711Z,10.55
2023-04-12T07:49:59.319Z,11.03
2023-04-12T07:52:29.246Z,7.80
2023-04-12T07:54:58.787Z,10.28
2023-04-12T07:57:28.281Z,11.18
2023-04-12T07:59:57.877Z,12.35
2023-04-12T08:02:27.622Z,10.95
2023-04-12T08:04:57.914Z,11.33
2023-04-12T08:07:28.851Z,9.08
2023-04-12T08:09:58.322Z,8.93
2023-04-12T08:12:27.919Z,6.42
2023-04-12T08:14:57.474Z,9.93
2023-04-12T08:17:28.751Z,8.53
2023-04-12T08:19:58.244Z,10.23
2023-04-12T08:22:28.507Z,12.85
2023-04-12T08:24:58.326Z,6.53
2023-04-12T08:27:28.677Z,10.75
2023-04-12T08:29:59.607Z,13.32
2023-04-12T08:32:29.171Z,9.55
2023-04-12T08:34:59.017Z,9.68
2023-04-12T08:37:29.525Z,8.88
2023-04-12T08:40:01.041Z,8.03
2023-04-12T08:42:31.996Z,9.33
2023-04-12T08:45:04.552Z,13.30
2023-04-12T08:47:37.528Z,8.70
2023-04-12T08:50:14.569Z,6.65
2023-04-12T08:52:44.920Z,6.85
2023-04-12T08:55:14.434Z,7.95
2023-04-12T08:57:44.137Z,10.08
2023-04-12T09:00:15.258Z,6.05
2023-04-12T09:02:46.570Z,12.55
2023-04-12T09:05:17.075Z,9.73
2023-04-12T09:07:46.715Z,8.00
2023-04-12T09:10:33.510Z,5.87
2023-04-12T09:13:04.302Z,8.08
2023-04-12T09:15:35.814Z,14.23
2023-04-12T09:18:11.381Z,11.10
2023-04-12T09:20:41.217Z,7.87
2023-04-12T09:23:27.056Z,9.48
2023-04-12T09:25:56.676Z,5.58
2023-04-12T09:28:28.409Z,7.45
2023-04-12T09:31:00.829Z,11.57
2023-04-12T09:33:40.444Z,8.33
2023-04-12T09:36:13.733Z,8.70
2023-04-12T09:39:05.412Z,6.90
2023-04-12T09:41:36.759Z,9.63
2023-04-12T09:44:06.233Z,7.90
2023-04-12T09:46:36.975Z,7.20
2023-04-12T09:49:06.572Z,7.53
2023-04-12T09:51:37.623Z,9.30
2023-04-12T09:54:10.317Z,8.73
2023-04-12T09:56:42.310Z,9.50
2023-04-12T09:59:14.094Z,7.30
2023-04-12T10:01:44.501Z,11.77
2023-04-12T10:04:14.371Z,7.75
2023-04-12T10:06:46.126Z,11.30
2023-04-12T10:09:16.309Z,10.45
2023-04-12T10:11:47.930Z,10.28
2023-04-12T10:14:20.516Z,6.30
2023-04-12T10:16:51.292Z,8.65
2023-04-12T10:19:21.293Z,5.62
2023-04-12T10:21:51.067Z,8.83
2023-04-12T10:24:23.377Z,8.93
2023-04-12T10:26:56.470Z,8.38
2023-04-12T10:29:31.084Z,8.53
2023-04-12T10:32:20.779Z,7.58
2023-04-12T10:34:55.049Z,9.67
2023-04-12T10:37:26.205Z,8.63
2023-04-12T10:39:56.274Z,5.15
2023-04-12T10:42:31.200Z,9.08
2023-04-12T10:45:35.619Z,7.92
2023-04-12T10:48:07.161Z,7.27
2023-04-12T10:50:36.850Z,8.33
2023-04-12T10:53:19.762Z,6.25
2023-04-12T10:55:49.500Z,5.42
2023-04-12T10:58:52.783Z,4.70
2023-04-12T11:01:23.756Z,3.63
2023-04-12T11:04:21.362Z,8.45
2023-04-12T11:07:05.324Z,5.55
2023-04-12T11:09:56.460Z,8.08
2023-04-12T11:12:35.907Z,4.08
2023-04-12T11:15:07.753Z,12.37
2023-04-12T11:18:00.581Z,3.80
2023-04-12T11:20:30.100Z,3.87
2023-04-12T11:23:02.077Z,4.45
2023-04-12T11:25:32.372Z,4.37
2023-04-12T11:28:02.064Z,4.72
2023-04-12T11:30:33.950Z,3.25
2023-04-12T11:33:03.529Z,6.70
2023-04-12T11:35:33.150Z,3.30
2023-04-12T11:38:02.956Z,11.88
2023-04-12T11:40:32.671Z,5.67
2023-04-12T11:43:02.288Z,8.15
2023-04-12T11:45:32.374Z,5.78
2023-04-12T11:48:02.110Z,8.20
2023-04-12T11:50:32.810Z,6.78
2023-04-12T11:53:13.370Z,5.35
2023-04-12T11:55:45.080Z,6.73
2023-04-12T11:58:14.590Z,4.05
2023-04-12T12:00:47.152Z,5.20
2023-04-12T12:03:19.239Z,4.75
2023-04-12T12:05:51.013Z,7.87
2023-04-12T12:08:21.978Z,5.47
2023-04-12T12:11:03.984Z,12.40
2023-04-12T12:13:22.825Z,4.25
2023-04-12T12:15:56.105Z,6.45
2023-04-12T12:18:29.315Z,7.92
2023-04-12T12:20:59.164Z,8.38
2023-04-12T12:23:33.024Z,11.90
2023-04-12T12:26:17.073Z,7.15
2023-04-12T12:28:41.313Z,8.83
2023-04-12T12:31:14.325Z,10.68
2023-04-12T12:33:47.153Z,13.13
2023-04-12T12:36:17.961Z,9.23
2023-04-12T12:41:23.486Z,6.15
2023-04-12T12:43:54.339Z,9.30
2023-04-12T12:46:24.529Z,13.18
2023-04-12T12:48:54.554Z,16.48
2023-04-12T12:51:24.192Z,9.93
2023-04-12T12:53:53.666Z,10.80
2023-04-12T12:56:23.154Z,8.45
2023-04-12T12:58:52.713Z,10.47
2023-04-12T13:01:22.206Z,8.95
2023-04-12T13:03:51.974Z,4.78
2023-04-12T13:06:21.989Z,3.72
2023-04-12T13:08:52.465Z,3.00
2023-04-12T13:11:22.141Z,3.83
2023-04-12T13:13:51.685Z,2.47
2023-04-12T13:16:22.105Z,1.05
2023-04-12T13:18:53.071Z,3.13
2023-04-12T13:21:24.327Z,2.72
2023-04-12T13:23:53.843Z,2.72
2023-04-12T13:26:24.964Z,1.82
2023-04-12T13:28:54.508Z,1.57
2023-04-12T13:31:23.979Z,2.90
2023-04-12T13:33:53.466Z,3.17
2023-04-12T13:36:23.417Z,3.60
2023-04-12T13:38:52.979Z,1.72
2023-04-12T13:41:23.449Z,1.57
2023-04-12T13:43:53.002Z,2.50
2023-04-12T13:46:22.522Z,2.15
2023-04-12T13:48:52.240Z,3.87
2023-04-12T13:51:23.438Z,2.47
2023-04-12T13:53:53.640Z,3.35
2023-04-12T13:56:23.093Z,3.92
2023-04-12T13:58:52.756Z,3.73
2023-04-12T14:01:24.191Z,2.77
2023-04-12T14:03:57.313Z,2.33
2023-04-12T14:06:27.387Z,2.55
2023-04-12T14:08:57.629Z,2.02
2023-04-12T14:11:27.535Z,4.28
2023-04-12T14:13:57.016Z,3.58
2023-04-12T14:16:26.989Z,4.95
2023-04-12T14:18:56.613Z,3.90
2023-04-12T14:21:28.438Z,3.77
2023-04-12T14:23:58.630Z,2.13
2023-04-12T14:26:28.618Z,3.85
2023-04-12T14:28:58.250Z,3.72
2023-04-12T14:31:28.349Z,5.35
2023-04-12T14:33:58.161Z,4.17
2023-04-12T14:36:28.045Z,2.75
2023-04-12T14:38:58.292Z,6.85
2023-04-12T14:41:28.375Z,4.22
2023-04-12T14:44:02.007Z,3.70
2023-04-12T14:46:32.008Z,3.45
2023-04-12T14:49:01.861Z,2.62
2023-04-12T14:51:32.186Z,4.15
2023-04-12T14:54:02.112Z,4.40
2023-04-12T14:56:33.496Z,5.40
2023-04-12T14:59:03.420Z,4.30
2023-04-12T15:01:33.978Z,5.83
2023-04-12T15:04:05.565Z,6.37
2023-04-12T15:06:37.303Z,19.70
2023-04-12T15:09:07.491Z,13.45
2023-04-12T15:11:38.491Z,6.47
2023-04-12T15:14:08.812Z,9.18
2023-04-12T15:16:39.993Z,16.17
2023-04-12T15:19:16.536Z,12.05
2023-04-12T15:21:40.632Z,14.87
2023-04-12T15:24:10.647Z,11.18
2023-04-12T15:26:40.132Z,13.85
2023-04-12T15:29:10.227Z,15.10
2023-04-12T15:31:39.746Z,7.25
2023-04-12T15:34:09.273Z,12.13
2023-04-12T15:36:41.154Z,12.82
2023-04-12T15:39:12.512Z,9.23
2023-04-12T15:41:43.737Z,58.28
2023-04-12T15:44:13.985Z,63.85
2023-04-12T15:46:43.750Z,58.35
2023-04-12T15:49:13.892Z,23.80
2023-04-12T15:51:43.392Z,24.02
2023-04-12T15:54:15.330Z,22.70
2023-04-12T15:56:46.223Z,32.10
2023-04-12T15:59:17.382Z,67.92
2023-04-12T16:01:49.799Z,24.27
2023-04-12T16:04:20.180Z,34.05
2023-04-12T16:06:50.584Z,20.65
2023-04-12T16:09:22.332Z,27.17
2023-04-12T16:11:52.591Z,22.07
2023-04-12T16:14:23.280Z,18.17
2023-04-12T16:16:52.764Z,19.55
2023-04-12T16:19:22.618Z,17.00
2023-04-12T16:21:52.564Z,16.15
2023-04-12T16:24:22.838Z,12.53
2023-04-12T16:26:53.470Z,14.20
2023-04-12T16:29:23.414Z,10.18
2023-04-12T16:31:53.448Z,8.43
2023-04-12T16:34:23.337Z,9.70
2023-04-12T16:36:53.254Z,8.93
2023-04-12T16:39:23.122Z,6.20
2023-04-12T16:41:52.591Z,5.00
2023-04-12T16:44:22.372Z,7.72
2023-04-12T16:46:51.937Z,10.80
2023-04-12T16:49:22.480Z,5.30
2023-04-12T16:51:52.475Z,9.10
2023-04-12T16:54:21.957Z,4.95
2023-04-12T16:56:53.876Z,9.88
2023-04-12T16:59:23.343Z,8.23
2023-04-12T17:01:53.651Z,9.33
2023-04-12T17:04:23.820Z,8.93
2023-04-12T17:06:53.490Z,7.42
2023-04-12T17:09:23.525Z,19.77
2023-04-12T17:11:53.049Z,41.48
2023-04-12T17:14:22.524Z,9.10
2023-04-12T17:16:52.001Z,8.40
2023-04-12T17:19:22.108Z,9.05
2023-04-12T17:21:53.032Z,13.85
2023-04-12T17:24:25.227Z,9.63
2023-04-12T17:29:23.806Z,6.75
2023-04-12T17:31:55.027Z,17.12
2023-04-12T17:34:26.390Z,29.32
2023-04-12T17:36:55.960Z,12.15
2023-04-12T17:39:25.531Z,14.73
2023-04-12T17:41:55.153Z,16.55
2023-04-12T17:44:24.661Z,18.98
2023-04-12T17:46:54.360Z,17.57
2023-04-12T17:49:25.768Z,14.68
2023-04-12T17:51:55.363Z,7.60
2023-04-12T17:54:25.049Z,10.23
2023-04-12T17:56:54.644Z,11.65
2023-04-12T17:59:25.469Z,11.03
2023-04-12T18:01:55.923Z,9.08
2023-04-12T18:04:27.799Z,14.10
2023-04-12T18:06:59.017Z,19.67
2023-04-12T18:09:28.553Z,20.75
2023-04-12T18:11:58.435Z,15.18
2023-04-12T18:14:28.970Z,12.33
2023-04-12T18:16:58.618Z,10.77
2023-04-12T18:19:28.115Z,13.00
2023-04-12T18:21:58.443Z,11.00
2023-04-12T18:24:28.165Z,8.05
2023-04-12T18:26:59.922Z,9.40
2023-04-12T18:29:32.743Z,8.25
2023-04-12T18:32:02.485Z,7.10
2023-04-12T18:34:32.175Z,9.83
2023-04-12T18:37:03.339Z,5.78
2023-04-12T18:39:34.695Z,6.20
2023-04-12T18:42:04.415Z,7.97
2023-04-12T18:44:34.784Z,6.12
2023-04-12T18:47:05.435Z,8.63
2023-04-12T18:49:35.367Z,5.20
2023-04-12T18:52:05.307Z,9.25
2023-04-12T18:54:34.844Z,6.92
2023-04-12T18:57:04.463Z,6.90
2023-04-12T18:59:34.782Z,6.28
2023-04-12T19:02:04.375Z,12.87
2023-04-12T19:04:35.899Z,7.00
2023-04-12T19:07:05.590Z,9.88
2023-04-12T19:09:35.144Z,6.12
2023-04-12T19:12:05.804Z,10.93
2023-04-12T19:14:35.769Z,7.30
2023-04-12T19:17:05.561Z,4.60
2023-04-12T19:19:34.993Z,7.50
2023-04-12T19:22:05.616Z,6.97
2023-04-12T19:24:35.112Z,6.33
2023-04-12T19:27:04.629Z,7.37
2023-04-12T19:29:34.225Z,7.08
2023-04-12T19:32:06.322Z,4.80
2023-04-12T19:34:36.023Z,5.67
2023-04-12T19:37:06.218Z,7.45
2023-04-12T19:39:37.932Z,8.65
2023-04-12T19:42:08.162Z,6.20
2023-04-12T19:44:39.827Z,20.60
2023-04-12T19:47:08.981Z,9.13
2023-04-12T19:49:39.702Z,9.18
2023-04-12T19:52:09.901Z,6.60
2023-04-12T19:54:39.955Z,8.90
2023-04-12T19:57:09.538Z,12.33
2023-04-12T19:59:40.185Z,10.68
2023-04-12T20:02:10.838Z,10.58
2023-04-12T20:04:40.355Z,9.35
2023-04-12T20:07:09.942Z,23.75
2023-04-12T20:09:40.313Z,17.92
2023-04-12T20:12:10.757Z,10.28
2023-04-12T20:14:41.320Z,8.23
2023-04-12T20:17:12.152Z,17.85
2023-04-12T20:19:42.441Z,18.37
2023-04-12T20:22:12.896Z,12.73
2023-04-12T20:24:42.428Z,21.68
2023-04-12T20:27:13.668Z,10.82
2023-04-12T20:29:44.983Z,13.00
2023-04-12T20:32:16.497Z,9.43
2023-04-12T20:34:47.532Z,6.37
2023-04-12T20:37:18.292Z,14.43
2023-04-12T20:39:47.779Z,11.90
2023-04-12T20:42:18.929Z,9.33
2023-04-12T20:44:49.661Z,10.58
2023-04-12T20:47:21.366Z,11.33
2023-04-12T20:49:52.539Z,9.30
2023-04-12T20:52:23.201Z,11.35
2023-04-12T20:54:53.453Z,12.35
2023-04-12T20:57:23.820Z,13.00
2023-04-12T20:59:53.577Z,10.88
2023-04-12T21:02:23.249Z,17.25
2023-04-12T21:04:53.333Z,7.62
2023-04-12T21:07:24.441Z,9.23
2023-04-12T21:09:54.040Z,11.18
2023-04-12T21:12:23.502Z,9.40
2023-04-12T21:14:53.296Z,10.50
2023-04-12T21:17:23.818Z,11.10
2023-04-12T21:19:53.407Z,16.57
2023-04-12T21:22:22.829Z,9.60
2023-04-12T21:24:52.355Z,13.13
2023-04-12T21:27:22.036Z,10.23
2023-04-12T21:29:51.612Z,10.15
2023-04-12T21:32:21.210Z,13.60
2023-04-12T21:34:51.150Z,6.87
2023-04-12T21:37:22.435Z,9.85
2023-04-12T21:39:52.661Z,9.35
2023-04-12T21:42:22.164Z,9.63
2023-04-12T21:44:51.788Z,12.70
2023-04-12T21:47:21.307Z,8.45
2023-04-12T21:49:55.792Z,9.28
2023-04-12T21:52:26.470Z,7.58
2023-04-12T21:54:56.005Z,6.67
2023-04-12T21:57:25.502Z,12.63
2023-04-12T21:59:55.197Z,10.43
2023-04-12T22:02:28.695Z,6.83
2023-04-12T22:04:58.613Z,10.00
2023-04-12T22:07:28.964Z,10.58
2023-04-12T22:09:58.737Z,7.85
2023-04-12T22:12:28.351Z,11.65
2023-04-12T22:14:58.706Z,7.97
2023-04-12T22:17:28.768Z,9.78
2023-04-12T22:20:00.033Z,10.40
2023-04-12T22:22:30.578Z,8.45
2023-04-12T22:25:00.456Z,10.95
2023-04-12T22:27:29.968Z,9.00
2023-04-12T22:30:00.764Z,10.32
2023-04-12T22:32:32.565Z,7.25
2023-04-12T22:35:08.457Z,11.93
2023-04-12T22:37:35.388Z,7.33
2023-04-12T22:40:12.728Z,7.15
2023-04-12T22:42:47.609Z,10.78
2023-04-12T22:45:18.840Z,6.05
2023-04-12T22:47:48.565Z,12.53
2023-04-12T22:50:19.993Z,10.18
2023-04-12T22:52:50.635Z,10.98
2023-04-12T22:55:22.125Z,10.53
2023-04-12T22:57:51.905Z,5.95
2023-04-12T23:00:23.084Z,7.00
2023-04-12T23:02:54.402Z,11.28
2023-04-12T23:05:26.263Z,6.40
2023-04-12T23:07:56.513Z,9.55
2023-04-12T23:10:25.991Z,13.13
2023-04-12T23:12:56.098Z,13.30
2023-04-12T23:15:26.527Z,6.67
2023-04-12T23:17:56.080Z,8.38
2023-04-12T23:20:25.665Z,7.22
2023-04-12T23:22:58.550Z,9.64
2023-04-12T23:25:40.126Z,9.85
2023-04-12T23:28:14.947Z,5.45
2023-04-12T23:30:49.843Z,8.85
2023-04-12T23:33:22.648Z,11.95
2023-04-12T23:35:53.598Z,7.97
2023-04-12T23:38:25.336Z,6.42
2023-04-12T23:40:54.879Z,10.78
2023-04-12T23:43:26.593Z,8.93
2023-04-12T23:45:57.876Z,7.50
2023-04-12T23:48:27.488Z,6.80
2023-04-12T23:50:57.504Z,6.55
2023-04-12T23:53:27.075Z,11.35
2023-04-12T23:55:57.514Z,6.10
2023-04-12T23:58:27.018Z,3.30
